This is the latest recevied weather packets stored in our database for station/object BadBuchau. If no packets are shown the sender has not sent any weather packets the latest 1 day(s).
| Time | Temp. | Humidity | Pressure | Rain* | Wind** | Luminosity | Snow |
|---|---|---|---|---|---|---|---|
| 1777977131 | 15.56° C | 69% | 1006.4 hPa | 0 mm | 2.24 m/s, 182° | - | - |
| 1777975332 | 15.56° C | 72% | 1006.6 hPa | 0 mm | 3.58 m/s, 173° | - | - |
| 1777973532 | 15.56° C | 73% | 1006.8 hPa | 0 mm | 3.58 m/s, 172° | - | - |
| 1777971732 | 15.56° C | 71% | 1006.9 hPa | 0 mm | 3.58 m/s, 149° | - | - |
| 1777969931 | 15.56° C | 70% | 1006.9 hPa | 0 mm | 3.13 m/s, 135° | - | - |
| 1777968130 | 15° C | 71% | 1007.1 hPa | 0 mm | 2.68 m/s, 184° | - | - |
| 1777966330 | 15° C | 71% | 1007.2 hPa | 0 mm | 3.58 m/s, 156° | - | - |
| 1777964531 | 12.78° C | 78% | 1007.4 hPa | 0 mm | 2.24 m/s, 148° | - | - |
| 1777962731 | 12.78° C | 77% | 1007.6 hPa | 0 mm | 1.79 m/s, 171° | - | - |
| 1777960932 | 9.44° C | 85% | 1007.7 hPa | 0 mm | 0 m/s | - | - |
| 1777959131 | 7.78° C | 87% | 1007.6 hPa | 0 mm | 0 m/s | - | - |
| 1777957331 | 7.22° C | 88% | 1007.6 hPa | 0 mm | 0 m/s | - | - |
| 1777955531 | 7.22° C | 84% | 1007.8 hPa | 0 mm | 0 m/s | - | - |
| 1777953730 | 7.78° C | 84% | 1007.7 hPa | 0 mm | 0 m/s | - | - |
| 1777951931 | 8.33° C | 83% | 1007.8 hPa | 0 mm | 0 m/s | - | - |
| 1777950133 | 8.89° C | 83% | 1008.2 hPa | 0 mm | 1.34 m/s, 299° | - | - |
| 1777948331 | 8.89° C | 82% | 1008.3 hPa | 0 mm | 0.89 m/s, 299° | - | - |
| 1777946531 | 9.44° C | 84% | 1008.6 hPa | 0 mm | 1.79 m/s, 342° | - | - |
| 1777944731 | 8.89° C | 82% | 1009 hPa | 0 mm | 2.24 m/s, 195° | - | - |
| 1777942931 | 10° C | 80% | 1009.3 hPa | 0 mm | 0.89 m/s, 262° | - | - |
| 1777941128 | 10° C | 80% | 1009.6 hPa | 0 mm | 0 m/s | - | - |
| 1777939330 | 11.11° C | 77% | 1009.8 hPa | 0 mm | 0.89 m/s, 53° | - | - |
| 1777937529 | 12.78° C | 71% | 1009.9 hPa | 0 mm | 0 m/s | - | - |
* Rain since midnight (hover to see other rain measurements)
** Current wind speed in m/s (hover to see current wind gust speed)